Time;durP1;ratioP1;P1;durP2;ratioP2;P2;SDS_P1;SDS_P2;PMS_P1;PMS_P2;Temp;Humidity;BMP_temperature;BMP_pressure;BME280_temperature;BME280_humidity;BME280_pressure;Samples;Min_cycle;Max_cycle;Signal;HPM_P1;HPM_P2
2020/12/30 00:01:28;;;;;;;14.40;4.50;;;2.90;99.90;;;;;;5039922;28;20063;-60
2020/12/30 00:03:54;;;;;;;8.27;4.47;;;3.00;99.90;;;;;;5044153;28;20024;-59
2020/12/30 00:06:20;;;;;;;8.40;4.20;;;3.00;99.90;;;;;;5017379;28;20036;-59
2020/12/30 00:08:47;;;;;;;7.10;3.78;;;3.00;99.90;;;;;;5046482;28;20527;-60
2020/12/30 00:11:12;;;;;;;10.13;4.55;;;3.10;99.90;;;;;;5063434;28;20048;-60
2020/12/30 00:13:39;;;;;;;9.63;5.13;;;3.00;99.90;;;;;;5056139;28;20044;-61
2020/12/30 00:16:05;;;;;;;10.55;5.38;;;3.10;99.90;;;;;;5044107;28;20033;-60
2020/12/30 00:18:31;;;;;;;11.63;5.15;;;3.10;99.90;;;;;;5048687;28;20025;-59
2020/12/30 00:20:56;;;;;;;9.20;5.20;;;3.00;99.90;;;;;;5048370;28;20060;-60
2020/12/30 00:23:25;;;;;;;10.68;4.80;;;3.00;99.90;;;;;;5045216;28;20120;-60
2020/12/30 00:25:51;;;;;;;8.10;4.90;;;3.00;99.90;;;;;;5055504;28;20562;-60
2020/12/30 00:28:18;;;;;;;8.35;5.18;;;3.00;99.90;;;;;;5047508;28;20067;-60
2020/12/30 00:30:44;;;;;;;9.43;5.05;;;3.00;99.90;;;;;;5039519;28;20033;-60
2020/12/30 00:33:10;;;;;;;9.27;5.18;;;3.00;99.90;;;;;;5046606;28;20031;-60
2020/12/30 00:35:35;;;;;;;15.63;6.35;;;2.90;99.90;;;;;;5055221;28;20025;-59
2020/12/30 00:38:01;;;;;;;7.93;5.53;;;2.90;99.90;;;;;;5049972;28;20066;-61
2020/12/30 00:40:26;;;;;;;9.23;5.40;;;2.90;99.90;;;;;;5052991;28;20098;-60
2020/12/30 00:42:52;;;;;;;8.90;5.63;;;3.00;99.90;;;;;;5047687;28;20041;-59
2020/12/30 00:45:17;;;;;;;8.25;5.10;;;3.00;99.90;;;;;;5046010;28;20029;-60
2020/12/30 00:47:43;;;;;;;9.65;5.35;;;3.00;99.90;;;;;;5032842;28;20514;-60
2020/12/30 00:50:08;;;;;;;8.25;5.07;;;3.00;99.90;;;;;;5034114;28;20033;-60
2020/12/30 00:52:35;;;;;;;9.05;5.28;;;3.00;99.90;;;;;;5039174;28;20025;-60
2020/12/30 00:55:01;;;;;;;10.07;4.43;;;3.00;99.90;;;;;;5038343;28;20056;-61
2020/12/30 00:57:26;;;;;;;9.50;4.72;;;3.00;99.90;;;;;;5038093;28;20029;-59
2020/12/30 00:59:53;;;;;;;7.72;5.10;;;3.00;99.90;;;;;;5045096;28;20095;-60
2020/12/30 01:02:19;;;;;;;8.98;6.28;;;3.00;99.90;;;;;;5053155;28;20111;-59
2020/12/30 01:04:44;;;;;;;7.78;5.28;;;3.00;99.90;;;;;;5030291;28;20116;-59
2020/12/30 01:07:11;;;;;;;7.82;5.15;;;3.00;99.90;;;;;;5008174;28;20081;-60
2020/12/30 01:09:37;;;;;;;7.18;4.10;;;3.00;99.90;;;;;;4996194;28;20044;-59
2020/12/30 01:12:05;;;;;;;7.30;4.95;;;3.00;99.90;;;;;;5030580;28;20032;-60
2020/12/30 01:14:31;;;;;;;8.82;4.88;;;3.00;99.90;;;;;;5026106;28;20044;-60
2020/12/30 01:16:57;;;;;;;8.77;4.97;;;3.00;99.90;;;;;;5024434;28;20029;-60
2020/12/30 01:19:23;;;;;;;11.85;5.93;;;3.10;99.90;;;;;;5025184;28;20040;-61
2020/12/30 01:21:49;;;;;;;8.98;5.40;;;3.00;99.90;;;;;;5027476;28;20029;-60
2020/12/30 01:24:15;;;;;;;9.90;5.10;;;3.00;99.90;;;;;;5026712;28;20026;-59
2020/12/30 01:26:41;;;;;;;11.90;4.80;;;3.00;99.90;;;;;;5028854;28;20021;-60
2020/12/30 01:29:07;;;;;;;7.32;5.20;;;3.00;99.90;;;;;;5029924;28;20059;-59
2020/12/30 01:31:34;;;;;;;9.77;5.05;;;3.10;99.90;;;;;;5048602;28;20025;-60
2020/12/30 01:34:00;;;;;;;12.57;6.05;;;3.10;99.90;;;;;;5052370;28;20033;-59
2020/12/30 01:36:26;;;;;;;10.40;6.47;;;3.00;99.90;;;;;;5058996;28;20024;-59
2020/12/30 01:38:53;;;;;;;8.57;5.53;;;3.00;99.90;;;;;;5031910;28;20033;-60
2020/12/30 01:41:19;;;;;;;8.40;5.50;;;3.00;99.90;;;;;;5021370;28;20040;-59
2020/12/30 01:43:59;;;;;;;11.85;5.90;;;3.00;99.90;;;;;;5026580;28;20046;-60
2020/12/30 01:46:36;;;;;;;9.32;5.78;;;3.00;99.90;;;;;;5049319;28;20087;-60
2020/12/30 01:49:05;;;;;;;11.18;6.55;;;3.00;99.90;;;;;;5054794;28;20449;-59
2020/12/30 01:51:32;;;;;;;14.73;5.78;;;3.00;99.90;;;;;;5048276;28;20025;-60
2020/12/30 01:53:59;;;;;;;13.20;6.03;;;3.00;99.90;;;;;;5030715;28;20037;-59
2020/12/30 01:56:28;;;;;;;10.25;5.97;;;3.00;99.90;;;;;;5027922;28;20025;-60
2020/12/30 01:58:54;;;;;;;13.45;6.05;;;3.00;99.90;;;;;;5025524;28;20391;-60
2020/12/30 02:01:24;;;;;;;10.55;6.32;;;3.10;99.90;;;;;;5047476;28;20021;-60
2020/12/30 02:03:55;;;;;;;12.35;6.68;;;3.10;99.90;;;;;;5046426;28;20086;-60
2020/12/30 02:06:21;;;;;;;9.27;6.32;;;3.00;99.90;;;;;;5027758;28;20051;-61
2020/12/30 02:08:47;;;;;;;15.60;6.60;;;3.00;99.90;;;;;;5041033;28;20465;-59
2020/12/30 02:11:13;;;;;;;9.85;6.00;;;3.00;99.90;;;;;;5055288;28;20036;-61
2020/12/30 02:13:39;;;;;;;9.98;6.25;;;3.00;99.90;;;;;;5038685;28;20025;-59
2020/12/30 02:16:04;;;;;;;10.90;6.40;;;3.00;99.90;;;;;;5045000;28;20049;-61
2020/12/30 02:18:30;;;;;;;16.05;7.50;;;3.10;99.90;;;;;;5050697;28;20028;-59
2020/12/30 02:20:56;;;;;;;14.93;7.57;;;3.10;99.90;;;;;;5050798;28;20044;-59
2020/12/30 02:23:21;;;;;;;10.40;7.28;;;3.10;99.90;;;;;;5036619;28;20037;-61
2020/12/30 02:25:47;;;;;;;11.70;6.80;;;3.10;99.90;;;;;;5053485;28;20033;-61
2020/12/30 02:28:13;;;;;;;11.93;6.40;;;3.00;99.90;;;;;;5047733;28;20017;-61
2020/12/30 02:30:38;;;;;;;13.45;7.20;;;3.10;99.90;;;;;;5044237;28;20029;-60
2020/12/30 02:33:07;;;;;;;11.40;8.00;;;3.10;99.90;;;;;;5046850;28;20393;-58
2020/12/30 02:35:33;;;;;;;15.90;7.78;;;3.10;99.90;;;;;;5049119;28;20742;-61
2020/12/30 02:37:59;;;;;;;15.20;7.85;;;3.10;99.90;;;;;;5039580;28;20025;-60
2020/12/30 02:40:24;;;;;;;12.30;7.70;;;3.10;99.90;;;;;;5037748;28;20082;-60
2020/12/30 02:42:51;;;;;;;13.35;8.02;;;3.10;99.90;;;;;;5040090;28;20622;-59
2020/12/30 02:45:17;;;;;;;14.88;8.25;;;3.10;99.90;;;;;;5048638;28;20510;-59
2020/12/30 02:47:42;;;;;;;13.98;7.70;;;3.10;99.90;;;;;;5042385;28;20043;-59
2020/12/30 02:50:08;;;;;;;19.75;8.40;;;3.10;99.90;;;;;;5056164;28;20101;-60
2020/12/30 02:52:34;;;;;;;15.00;8.23;;;3.10;99.90;;;;;;5033170;28;20059;-58
2020/12/30 02:54:59;;;;;;;11.60;7.47;;;3.10;99.90;;;;;;5032890;28;20508;-60
2020/12/30 02:57:25;;;;;;;12.15;7.90;;;3.10;99.90;;;;;;5042779;28;20029;-61
2020/12/30 02:59:55;;;;;;;13.90;8.63;;;3.10;99.90;;;;;;5052510;28;20632;-61
2020/12/30 03:02:23;;;;;;;12.38;7.78;;;3.10;99.90;;;;;;5050468;28;20040;-60
2020/12/30 03:04:48;;;;;;;15.35;8.65;;;3.10;99.90;;;;;;5049990;28;20032;-60
2020/12/30 03:07:14;;;;;;;15.02;8.88;;;3.10;99.90;;;;;;5023463;28;20037;-60
2020/12/30 03:09:39;;;;;;;14.15;9.23;;;3.20;99.90;;;;;;5029461;28;20026;-61
2020/12/30 03:12:05;;;;;;;13.55;9.48;;;3.10;99.90;;;;;;5042715;28;20160;-60
2020/12/30 03:14:30;;;;;;;16.80;8.98;;;3.10;99.90;;;;;;5045840;28;20030;-61
2020/12/30 03:16:56;;;;;;;16.95;8.63;;;3.10;99.90;;;;;;5055532;28;20041;-61
2020/12/30 03:19:21;;;;;;;15.43;9.45;;;3.00;99.90;;;;;;5044998;28;20020;-61
2020/12/30 03:21:47;;;;;;;18.90;9.88;;;3.00;99.90;;;;;;5054983;28;20029;-60
2020/12/30 03:24:12;;;;;;;21.80;9.52;;;3.00;99.90;;;;;;5047516;28;20026;-61
2020/12/30 03:26:38;;;;;;;14.23;9.05;;;3.00;99.90;;;;;;5025034;28;20541;-60
2020/12/30 03:29:03;;;;;;;14.73;8.55;;;3.00;99.90;;;;;;5027296;28;20026;-60
2020/12/30 03:31:30;;;;;;;18.40;10.45;;;3.00;99.90;;;;;;5036249;28;20585;-60
2020/12/30 03:33:57;;;;;;;13.23;9.82;;;3.00;99.90;;;;;;5055065;28;20053;-58
2020/12/30 03:36:23;;;;;;;16.73;9.90;;;3.00;99.90;;;;;;5055404;28;20043;-60
2020/12/30 03:38:48;;;;;;;15.60;10.00;;;3.00;99.90;;;;;;5036972;28;20367;-59
2020/12/30 03:41:14;;;;;;;14.93;9.00;;;3.00;99.90;;;;;;5046035;28;20390;-59
2020/12/30 03:43:40;;;;;;;17.08;9.95;;;3.00;99.90;;;;;;5030418;28;20487;-56
2020/12/30 03:46:05;;;;;;;16.63;9.65;;;3.10;99.90;;;;;;5044387;28;20029;-61
2020/12/30 03:48:31;;;;;;;17.98;9.70;;;3.10;99.90;;;;;;5047757;28;20049;-61
2020/12/30 03:50:56;;;;;;;14.82;9.02;;;3.10;99.90;;;;;;5060939;28;20104;-60
2020/12/30 03:53:22;;;;;;;18.70;9.45;;;3.10;99.90;;;;;;5050442;28;20057;-60
2020/12/30 03:55:47;;;;;;;19.23;10.38;;;3.10;99.90;;;;;;5059355;28;20063;-59
2020/12/30 03:58:13;;;;;;;20.33;10.82;;;3.10;99.90;;;;;;5049484;28;20033;-62
2020/12/30 04:00:39;;;;;;;19.58;10.30;;;3.10;99.90;;;;;;5060315;28;20063;-60
2020/12/30 04:03:04;;;;;;;20.83;11.25;;;3.10;99.90;;;;;;5049767;28;20037;-60
2020/12/30 04:05:30;;;;;;;21.05;9.90;;;3.00;99.90;;;;;;5054660;28;20020;-60
2020/12/30 04:07:55;;;;;;;21.27;10.80;;;3.00;99.90;;;;;;5013900;28;20052;-61
2020/12/30 04:10:21;;;;;;;19.60;9.82;;;3.00;99.90;;;;;;5033414;28;20025;-61
2020/12/30 04:12:47;;;;;;;18.58;10.55;;;3.00;99.90;;;;;;5055180;28;20047;-60
2020/12/30 04:15:12;;;;;;;19.63;10.85;;;3.00;99.90;;;;;;5045335;28;20025;-60
2020/12/30 04:17:38;;;;;;;19.23;10.48;;;2.90;99.90;;;;;;5048459;28;20543;-59
2020/12/30 04:20:03;;;;;;;15.52;9.40;;;2.90;99.90;;;;;;5061470;28;20399;-61
2020/12/30 04:22:29;;;;;;;25.33;10.60;;;2.90;99.90;;;;;;5041246;28;20479;-60
2020/12/30 04:24:54;;;;;;;15.02;9.32;;;2.90;99.90;;;;;;5052852;28;20049;-61
2020/12/30 04:27:20;;;;;;;18.98;11.70;;;2.80;99.90;;;;;;5034829;28;20040;-60
2020/12/30 04:29:45;;;;;;;18.20;10.73;;;2.80;99.90;;;;;;5052763;28;20088;-61
2020/12/30 04:32:11;;;;;;;26.30;11.30;;;2.80;99.90;;;;;;5045561;28;20047;-60
2020/12/30 04:34:37;;;;;;;16.38;10.48;;;2.80;99.90;;;;;;5054346;28;20025;-60
2020/12/30 04:37:02;;;;;;;18.23;10.75;;;2.70;99.90;;;;;;5044406;28;20028;-60
2020/12/30 04:39:28;;;;;;;21.13;11.02;;;2.70;99.90;;;;;;5034433;28;20536;-61
2020/12/30 04:41:57;;;;;;;21.27;11.75;;;2.60;99.90;;;;;;5052297;28;20082;-61
2020/12/30 04:44:24;;;;;;;19.35;11.35;;;2.60;99.90;;;;;;5055222;28;20033;-61
2020/12/30 04:46:54;;;;;;;22.25;12.20;;;2.60;99.90;;;;;;5055472;28;20039;-60
2020/12/30 04:49:20;;;;;;;22.13;12.50;;;2.60;99.90;;;;;;5058357;28;20036;-59
2020/12/30 04:51:47;;;;;;;23.75;12.52;;;2.60;99.90;;;;;;5048642;28;20128;-58
2020/12/30 04:54:13;;;;;;;19.20;12.10;;;2.60;99.90;;;;;;5032232;28;20033;-60
2020/12/30 04:56:45;;;;;;;21.52;12.30;;;2.60;99.90;;;;;;5036811;28;20021;-60
2020/12/30 04:59:12;;;;;;;22.17;12.05;;;2.60;99.90;;;;;;5045594;28;20079;-61
2020/12/30 05:02:03;;;;;;;27.75;12.30;;;2.60;99.90;;;;;;5048445;28;20017;-59
2020/12/30 05:04:30;;;;;;;24.17;12.60;;;2.70;99.90;;;;;;5050621;28;20031;-59
2020/12/30 05:07:08;;;;;;;19.30;11.88;;;2.70;99.90;;;;;;5021228;28;20090;-59
2020/12/30 05:09:35;;;;;;;21.27;11.45;;;2.80;99.90;;;;;;5052873;28;20020;-60
2020/12/30 05:12:09;;;;;;;24.40;12.55;;;2.80;99.90;;;;;;5046877;28;20051;-60
2020/12/30 05:14:34;;;;;;;17.73;11.35;;;2.80;99.90;;;;;;5032775;28;20048;-60
2020/12/30 05:17:00;;;;;;;16.33;10.20;;;2.80;99.90;;;;;;5046086;28;20071;-60
2020/12/30 05:19:25;;;;;;;21.77;11.60;;;2.80;99.90;;;;;;5046289;28;20022;-59
2020/12/30 05:21:51;;;;;;;17.08;10.52;;;2.80;99.90;;;;;;5047549;28;20021;-60
2020/12/30 05:24:18;;;;;;;18.27;11.55;;;2.80;99.90;;;;;;5038025;28;20029;-61
2020/12/30 05:26:45;;;;;;;23.90;11.27;;;2.80;99.90;;;;;;5042775;28;20110;-59
2020/12/30 05:29:10;;;;;;;21.85;11.75;;;2.80;99.90;;;;;;5049155;28;20017;-60
2020/12/30 05:31:36;;;;;;;23.88;12.55;;;2.80;99.90;;;;;;5044917;28;20017;-60
2020/12/30 05:34:01;;;;;;;30.77;18.80;;;2.80;99.90;;;;;;5039305;28;20026;-59
2020/12/30 05:36:27;;;;;;;45.45;24.67;;;2.70;99.90;;;;;;5043787;28;20479;-61
2020/12/30 05:38:53;;;;;;;43.38;22.73;;;2.50;99.90;;;;;;5052784;28;20024;-59
2020/12/30 05:41:20;;;;;;;46.28;24.35;;;2.40;99.90;;;;;;5044774;28;20021;-60
2020/12/30 05:43:46;;;;;;;56.10;27.10;;;2.30;99.90;;;;;;5053658;28;20086;-59
2020/12/30 05:46:24;;;;;;;50.95;24.75;;;2.20;99.90;;;;;;5051297;28;20609;-60
2020/12/30 05:48:52;;;;;;;40.47;19.67;;;2.10;99.90;;;;;;5049714;28;20075;-60
2020/12/30 05:51:25;;;;;;;39.00;18.88;;;2.00;99.90;;;;;;5055541;28;20112;-60
2020/12/30 05:54:13;;;;;;;47.47;24.75;;;1.90;99.90;;;;;;5044461;28;20041;-58
2020/12/30 05:56:40;;;;;;;63.58;31.30;;;1.90;99.90;;;;;;5052496;28;20033;-58
2020/12/30 05:59:06;;;;;;;53.30;28.95;;;1.80;99.90;;;;;;5052032;28;20033;-60
2020/12/30 06:01:34;;;;;;;71.97;34.25;;;1.80;99.90;;;;;;5052352;28;20017;-59
2020/12/30 06:04:15;;;;;;;77.32;34.10;;;1.80;99.90;;;;;;5045195;28;20033;-60
2020/12/30 06:06:43;;;;;;;64.80;30.15;;;1.80;99.90;;;;;;5032355;28;20098;-60
2020/12/30 06:09:14;;;;;;;62.00;28.20;;;1.80;99.90;;;;;;5048032;28;20048;-61
2020/12/30 06:11:50;;;;;;;74.38;31.67;;;1.80;99.90;;;;;;5046552;28;20032;-61
2020/12/30 06:14:17;;;;;;;71.53;31.80;;;1.90;99.90;;;;;;5032950;28;20033;-60
2020/12/30 06:16:43;;;;;;;114.15;42.90;;;1.90;99.90;;;;;;5044706;28;20048;-60
2020/12/30 06:19:11;;;;;;;88.85;36.65;;;2.00;99.90;;;;;;5036627;28;20029;-59
2020/12/30 06:21:42;;;;;;;104.88;39.75;;;2.00;99.90;;;;;;5038174;28;20095;-60
2020/12/30 06:24:11;;;;;;;86.43;37.65;;;2.00;99.90;;;;;;5039645;28;20051;-60
2020/12/30 06:26:38;;;;;;;81.30;34.05;;;2.10;99.90;;;;;;5039166;28;20033;-58
2020/12/30 06:29:11;;;;;;;64.55;29.73;;;2.20;99.90;;;;;;5046149;28;20056;-60
2020/12/30 06:31:49;;;;;;;66.07;37.00;;;2.20;99.90;;;;;;5040660;28;20028;-60
2020/12/30 06:34:16;;;;;;;47.58;27.08;;;2.20;99.90;;;;;;5045936;28;20500;-60
2020/12/30 06:36:43;;;;;;;54.05;29.30;;;2.30;99.90;;;;;;5045437;28;20035;-59
2020/12/30 06:39:25;;;;;;;50.10;26.38;;;2.30;99.90;;;;;;5041718;28;20043;-60
2020/12/30 06:41:59;;;;;;;55.25;28.40;;;2.30;99.90;;;;;;5048680;28;20068;-60
2020/12/30 06:44:41;;;;;;;64.07;28.70;;;2.30;99.90;;;;;;5026707;28;20022;-60
2020/12/30 06:47:11;;;;;;;36.45;19.20;;;2.40;99.90;;;;;;5054762;28;20037;-61
2020/12/30 06:49:37;;;;;;;35.90;18.63;;;2.30;99.90;;;;;;5040270;28;20025;-61
2020/12/30 06:52:26;;;;;;;59.28;26.67;;;2.30;99.90;;;;;;5056165;28;20013;-58
2020/12/30 06:54:52;;;;;;;52.78;24.42;;;2.30;99.90;;;;;;5043430;28;20029;-61
2020/12/30 06:57:37;;;;;;;34.00;15.32;;;2.30;99.90;;;;;;5041936;28;20023;-60
2020/12/30 07:00:38;;;;;;;30.73;14.30;;;2.20;99.90;;;;;;5040290;28;20402;-60
2020/12/30 07:03:32;;;;;;;25.08;12.57;;;2.30;99.90;;;;;;5051720;28;20746;-60
2020/12/30 07:06:20;;;;;;;37.10;15.60;;;2.20;99.90;;;;;;5053182;28;20033;-61
2020/12/30 07:08:46;;;;;;;41.83;19.95;;;2.10;99.90;;;;;;5025621;28;20084;-61
2020/12/30 07:11:11;;;;;;;50.20;22.40;;;2.10;99.90;;;;;;5043137;28;20038;-60
2020/12/30 07:13:40;;;;;;;68.35;26.92;;;2.10;99.90;;;;;;5038942;28;20029;-61
2020/12/30 07:16:19;;;;;;;58.65;24.45;;;2.00;99.90;;;;;;5045906;28;20029;-60
2020/12/30 07:18:51;;;;;;;60.88;24.27;;;1.90;99.90;;;;;;5047474;28;20561;-58
2020/12/30 07:21:17;;;;;;;63.65;25.48;;;1.90;99.90;;;;;;5043488;28;20514;-60
2020/12/30 07:23:45;;;;;;;70.18;26.42;;;1.80;99.90;;;;;;5042743;28;20099;-59
2020/12/30 07:26:19;;;;;;;56.85;24.95;;;1.70;99.90;;;;;;5048634;28;20036;-60
2020/12/30 07:28:46;;;;;;;65.20;29.17;;;1.70;99.90;;;;;;5050989;28;20031;-60
2020/12/30 07:31:13;;;;;;;75.68;30.80;;;1.60;99.90;;;;;;5042018;28;20102;-60
2020/12/30 07:33:39;;;;;;;66.60;29.23;;;1.60;99.90;;;;;;5048343;28;20112;-59
2020/12/30 07:36:08;;;;;;;57.40;24.88;;;1.50;99.90;;;;;;5056549;28;20497;-60
2020/12/30 07:38:35;;;;;;;71.38;30.50;;;1.50;99.90;;;;;;5046846;28;20016;-60
2020/12/30 07:41:10;;;;;;;105.53;35.40;;;1.40;99.90;;;;;;5003777;28;20020;-59
2020/12/30 07:43:46;;;;;;;101.85;39.58;;;1.40;99.90;;;;;;5047391;28;20042;-60
2020/12/30 07:46:22;;;;;;;96.10;36.15;;;1.30;99.90;;;;;;5039058;28;20032;-59
2020/12/30 07:48:48;;;;;;;93.35;34.78;;;1.40;99.90;;;;;;5053244;28;20034;-60
2020/12/30 07:51:13;;;;;;;66.07;25.23;;;1.50;99.90;;;;;;5038920;28;20582;-61
2020/12/30 07:53:40;;;;;;;76.78;28.25;;;1.50;99.90;;;;;;5034828;28;20368;-57
2020/12/30 07:56:19;;;;;;;85.78;30.20;;;1.70;99.90;;;;;;5050333;28;20718;-60
2020/12/30 07:58:46;;;;;;;104.22;34.47;;;1.80;99.90;;;;;;5048833;28;20028;-58
2020/12/30 08:01:14;;;;;;;125.60;54.38;;;1.90;99.90;;;;;;5050174;28;20025;-60
2020/12/30 08:03:39;;;;;;;36.95;18.65;;;1.90;99.90;;;;;;5057621;28;20060;-59
2020/12/30 08:06:08;;;;;;;46.58;19.35;;;2.00;99.90;;;;;;5039327;28;20056;-59
2020/12/30 08:08:33;;;;;;;32.30;16.58;;;2.10;99.90;;;;;;5029499;28;20112;-60
2020/12/30 08:10:59;;;;;;;38.30;17.67;;;2.10;99.90;;;;;;5026126;28;20033;-58
2020/12/30 08:13:25;;;;;;;38.45;19.15;;;2.20;99.90;;;;;;5029655;28;20578;-60
2020/12/30 08:15:51;;;;;;;44.15;18.90;;;2.20;99.90;;;;;;5037478;28;20041;-59
2020/12/30 08:18:17;;;;;;;38.78;17.63;;;2.30;99.90;;;;;;5047426;28;20027;-59
2020/12/30 08:20:43;;;;;;;28.35;15.15;;;2.30;99.90;;;;;;5043524;28;20029;-60
2020/12/30 08:23:09;;;;;;;54.05;28.85;;;2.40;99.90;;;;;;5046520;28;20025;-60
2020/12/30 08:25:34;;;;;;;31.15;15.90;;;2.50;99.90;;;;;;5046509;28;20448;-59
2020/12/30 08:28:03;;;;;;;28.80;15.63;;;2.50;99.90;;;;;;5049119;28;20050;-60
2020/12/30 08:30:32;;;;;;;23.33;14.07;;;2.60;99.90;;;;;;5052779;28;20070;-58
2020/12/30 08:33:04;;;;;;;15.35;9.48;;;2.60;99.90;;;;;;5048106;28;20099;-62
2020/12/30 08:35:33;;;;;;;16.42;9.63;;;2.70;99.90;;;;;;5057358;28;20070;-62
2020/12/30 08:38:18;;;;;;;20.27;11.35;;;2.80;99.90;;;;;;5041099;28;20018;-59
2020/12/30 08:40:48;;;;;;;;;;;2.80;99.90;;;;;;5026625;28;20029;-61
2020/12/30 08:43:41;;;;;;;16.30;8.40;;;2.80;99.90;;;;;;5042664;28;19912;-63
2020/12/30 08:46:30;;;;;;;16.40;8.38;;;2.90;99.90;;;;;;5049159;28;20036;-62
2020/12/30 08:48:58;;;;;;;13.00;8.68;;;2.90;99.90;;;;;;5049680;28;20037;-59
2020/12/30 08:51:33;;;;;;;12.93;8.32;;;3.00;99.90;;;;;;5048070;28;20054;-61
2020/12/30 08:54:00;;;;;;;11.05;7.97;;;3.00;99.90;;;;;;5049136;28;20027;-60
2020/12/30 08:56:27;;;;;;;26.00;13.50;;;3.10;99.90;;;;;;5051405;28;20028;-62
2020/12/30 08:58:57;;;;;;;15.60;8.70;;;3.10;99.90;;;;;;5050462;28;20029;-62
2020/12/30 09:01:25;;;;;;;14.95;8.77;;;3.10;99.90;;;;;;5049591;28;20028;-62
2020/12/30 09:03:51;;;;;;;14.98;7.40;;;3.10;99.90;;;;;;5054793;28;20032;-60
2020/12/30 09:06:34;;;;;;;10.30;6.85;;;3.20;99.90;;;;;;5040329;28;20034;-62
2020/12/30 09:09:14;;;;;;;13.60;7.28;;;3.20;99.90;;;;;;5026181;28;20049;-59
2020/12/30 09:11:47;;;;;;;13.00;8.70;;;3.20;99.90;;;;;;5031001;28;20037;-61
2020/12/30 09:14:14;;;;;;;11.50;8.00;;;3.20;99.90;;;;;;5040199;28;20662;-62
2020/12/30 09:17:04;;;;;;;13.45;8.55;;;3.30;99.90;;;;;;5022610;28;20037;-59
2020/12/30 09:19:30;;;;;;;12.65;6.75;;;3.40;99.90;;;;;;5055424;28;20056;-60
2020/12/30 09:22:06;;;;;;;11.95;6.82;;;3.50;99.90;;;;;;5047835;28;20065;-62
2020/12/30 09:24:36;;;;;;;12.35;6.05;;;3.50;99.90;;;;;;5031861;28;20561;-61
2020/12/30 09:27:22;;;;;;;10.50;7.15;;;3.60;99.90;;;;;;5027528;28;20026;-62
2020/12/30 09:30:18;;;;;;;12.02;7.18;;;3.70;99.90;;;;;;5045553;28;20036;-62
2020/12/30 09:32:44;;;;;;;24.45;13.05;;;3.80;99.90;;;;;;5055291;28;20684;-60
2020/12/30 09:35:12;;;;;;;13.20;8.18;;;3.80;99.90;;;;;;5040150;28;20112;-60
2020/12/30 09:37:38;;;;;;;14.98;7.80;;;3.80;99.90;;;;;;5046819;28;20032;-61
2020/12/30 09:40:12;;;;;;;13.27;6.47;;;3.90;99.90;;;;;;5055573;28;20029;-59
2020/12/30 09:42:40;;;;;;;8.35;5.60;;;3.90;99.90;;;;;;5053970;28;20585;-61
2020/12/30 09:45:09;;;;;;;10.52;6.63;;;3.90;99.90;;;;;;5037536;28;20032;-61
2020/12/30 09:47:35;;;;;;;10.55;6.43;;;3.90;99.90;;;;;;5053681;28;20044;-60
2020/12/30 09:50:05;;;;;;;8.93;5.55;;;4.00;99.90;;;;;;5060015;28;20688;-60
2020/12/30 09:52:39;;;;;;;9.65;6.55;;;4.00;99.90;;;;;;5048797;28;20635;-60
2020/12/30 09:55:05;;;;;;;9.25;6.63;;;4.00;99.90;;;;;;5055384;28;20949;-61
2020/12/30 09:57:33;;;;;;;9.07;6.47;;;4.10;99.90;;;;;;5031659;28;20033;-60
2020/12/30 09:59:59;;;;;;;8.25;5.20;;;4.20;99.90;;;;;;5055335;28;20021;-61
2020/12/30 10:02:25;;;;;;;8.32;5.93;;;4.20;99.90;;;;;;5059567;28;20415;-61
2020/12/30 10:04:51;;;;;;;9.93;6.80;;;4.20;99.90;;;;;;5059798;28;20020;-61
2020/12/30 10:07:17;;;;;;;10.45;6.50;;;4.20;99.90;;;;;;5034059;28;20045;-62
2020/12/30 10:09:42;;;;;;;6.95;5.38;;;4.20;99.90;;;;;;5045080;28;20515;-60
2020/12/30 10:12:08;;;;;;;9.63;6.50;;;4.20;99.90;;;;;;5028748;28;20124;-59
2020/12/30 10:14:33;;;;;;;22.25;10.32;;;4.10;99.90;;;;;;5045066;28;20017;-61
2020/12/30 10:16:59;;;;;;;43.95;18.05;;;4.10;99.90;;;;;;5051224;28;20090;-60
2020/12/30 10:19:24;;;;;;;40.47;22.92;;;4.00;99.90;;;;;;5052048;28;20020;-61
2020/12/30 10:21:50;;;;;;;24.33;15.23;;;4.00;99.90;;;;;;5039371;28;20108;-60
2020/12/30 10:24:16;;;;;;;16.65;9.07;;;4.00;99.90;;;;;;5034118;28;20716;-60
2020/12/30 10:26:41;;;;;;;45.55;24.13;;;4.00;99.90;;;;;;5035017;28;20114;-60
2020/12/30 10:29:07;;;;;;;36.30;19.00;;;4.00;99.90;;;;;;5029640;28;20042;-60
2020/12/30 10:31:33;;;;;;;15.20;9.30;;;4.10;99.90;;;;;;5049336;28;20536;-60
2020/12/30 10:33:58;;;;;;;13.60;7.72;;;4.20;99.90;;;;;;5057386;28;20123;-60
2020/12/30 10:36:28;;;;;;;12.90;7.00;;;4.20;99.90;;;;;;5035660;28;20037;-60
2020/12/30 10:38:59;;;;;;;14.85;8.00;;;4.30;99.90;;;;;;5028095;28;20037;-60
2020/12/30 10:41:25;;;;;;;62.78;25.60;;;4.40;99.90;;;;;;5025480;28;20087;-60
2020/12/30 10:43:51;;;;;;;37.17;18.13;;;4.40;99.90;;;;;;5024747;28;20494;-59
2020/12/30 10:46:17;;;;;;;15.93;8.63;;;4.40;99.90;;;;;;5033676;28;20112;-59
2020/12/30 10:48:44;;;;;;;13.55;7.97;;;4.50;99.90;;;;;;5046843;28;20029;-60
2020/12/30 10:51:11;;;;;;;39.78;20.65;;;4.50;99.90;;;;;;5055907;28;20021;-61
2020/12/30 10:53:37;;;;;;;29.25;13.43;;;4.50;99.90;;;;;;5028961;28;20075;-59
2020/12/30 10:56:03;;;;;;;23.52;13.65;;;4.50;99.90;;;;;;5025761;28;20680;-60
2020/12/30 10:58:29;;;;;;;16.48;10.23;;;4.50;99.90;;;;;;5037630;28;20021;-61
2020/12/30 11:00:55;;;;;;;20.10;9.80;;;4.50;99.90;;;;;;5027922;28;20061;-60
2020/12/30 11:03:21;;;;;;;27.52;14.30;;;4.50;99.90;;;;;;5029284;28;20057;-60
2020/12/30 11:05:46;;;;;;;37.95;18.65;;;4.50;99.90;;;;;;5029771;28;20037;-61
2020/12/30 11:08:12;;;;;;;38.78;20.23;;;4.50;99.90;;;;;;5009312;28;21000;-61
2020/12/30 11:10:37;;;;;;;26.50;13.05;;;4.50;99.90;;;;;;5050491;28;20494;-61
2020/12/30 11:13:03;;;;;;;28.80;14.07;;;4.60;99.90;;;;;;5043975;28;20033;-60
2020/12/30 11:15:29;;;;;;;32.80;17.58;;;4.60;99.90;;;;;;5050898;28;20025;-60
2020/12/30 11:17:54;;;;;;;16.25;10.13;;;4.70;99.90;;;;;;5050977;28;20394;-61
2020/12/30 11:20:20;;;;;;;40.92;19.42;;;4.70;99.90;;;;;;5053331;28;20029;-61
2020/12/30 11:22:45;;;;;;;30.27;15.52;;;4.80;99.90;;;;;;5049715;28;20082;-59
2020/12/30 11:25:11;;;;;;;37.88;18.85;;;4.80;99.90;;;;;;5055437;28;20036;-60
2020/12/30 11:27:36;;;;;;;34.28;16.42;;;4.90;99.90;;;;;;5024823;28;20037;-61
2020/12/30 11:30:02;;;;;;;30.33;14.77;;;4.90;99.90;;;;;;5041361;28;20024;-61
2020/12/30 11:32:28;;;;;;;20.05;9.65;;;5.00;99.90;;;;;;5030223;28;20041;-61
2020/12/30 11:34:53;;;;;;;9.10;6.13;;;5.10;99.90;;;;;;5032663;28;20104;-62
2020/12/30 11:37:19;;;;;;;10.10;7.53;;;5.10;99.90;;;;;;5037202;28;20479;-61
2020/12/30 11:39:44;;;;;;;12.55;7.80;;;5.20;99.90;;;;;;5043341;28;20033;-61
2020/12/30 11:42:10;;;;;;;12.13;5.70;;;5.20;99.90;;;;;;5048641;28;20436;-60
2020/12/30 11:44:35;;;;;;;11.02;6.88;;;5.10;99.90;;;;;;5054181;28;20039;-62
2020/12/30 11:47:01;;;;;;;10.30;7.25;;;5.10;99.90;;;;;;5036874;28;20040;-62
2020/12/30 11:49:27;;;;;;;11.75;7.25;;;5.10;99.90;;;;;;5034833;28;20021;-62
2020/12/30 11:51:53;;;;;;;10.63;6.13;;;5.20;99.90;;;;;;5047693;28;20180;-61
2020/12/30 11:54:19;;;;;;;9.48;5.60;;;5.20;99.90;;;;;;5037823;28;20537;-60
2020/12/30 11:56:44;;;;;;;9.15;5.53;;;5.20;99.90;;;;;;5040667;28;20089;-59
2020/12/30 11:59:10;;;;;;;16.85;6.15;;;5.30;99.90;;;;;;5042815;28;20033;-62
2020/12/30 12:01:35;;;;;;;14.70;7.57;;;5.30;99.90;;;;;;5047062;28;20055;-63
2020/12/30 12:04:02;;;;;;;30.50;14.95;;;5.40;99.90;;;;;;5047883;28;20115;-62
2020/12/30 12:06:29;;;;;;;41.13;20.02;;;5.30;99.90;;;;;;5047810;28;20629;-61
2020/12/30 12:08:54;;;;;;;11.55;7.13;;;5.30;99.90;;;;;;5039208;28;20053;-62
2020/12/30 12:11:20;;;;;;;43.10;16.42;;;5.30;99.90;;;;;;5046579;28;20123;-61
2020/12/30 12:13:46;;;;;;;29.23;11.60;;;5.30;99.90;;;;;;5055241;28;20115;-60
2020/12/30 12:16:12;;;;;;;23.80;10.23;;;5.30;99.90;;;;;;5046847;28;20031;-59
2020/12/30 12:18:38;;;;;;;29.85;14.80;;;5.30;99.90;;;;;;5037033;28;20021;-59
2020/12/30 12:21:04;;;;;;;64.07;26.40;;;5.40;99.90;;;;;;5036610;28;20039;-59
2020/12/30 12:23:30;;;;;;;66.80;27.92;;;5.40;99.90;;;;;;5041742;28;20041;-61
2020/12/30 12:25:56;;;;;;;27.90;14.50;;;5.50;99.90;;;;;;5050875;28;20410;-62
2020/12/30 12:28:57;;;;;;;34.60;18.10;;;5.50;99.90;;;;;;5033090;28;20035;-61
2020/12/30 12:31:23;;;;;;;18.95;10.75;;;5.50;99.90;;;;;;5046755;28;20071;-61
2020/12/30 12:33:48;;;;;;;14.00;7.93;;;5.50;99.90;;;;;;5033891;28;20052;-62
2020/12/30 12:36:15;;;;;;;28.08;13.75;;;5.60;99.90;;;;;;5045560;28;20021;-62
2020/12/30 12:38:41;;;;;;;39.42;19.13;;;5.60;99.90;;;;;;5044215;28;20438;-61
2020/12/30 12:41:06;;;;;;;19.15;11.32;;;5.70;99.90;;;;;;5043089;28;20115;-61
2020/12/30 12:43:32;;;;;;;27.38;14.75;;;5.70;99.90;;;;;;5035181;28;20112;-59
2020/12/30 12:45:58;;;;;;;28.20;13.02;;;5.70;99.90;;;;;;5038008;28;20566;-59
2020/12/30 12:48:23;;;;;;;26.92;16.17;;;5.70;99.90;;;;;;5044718;28;20028;-59